createdAt,value
2022-11-18T00:00:23.000Z,7.11111111111111
2022-11-18T00:00:43.000Z,7.11111111111111
2022-11-18T00:01:12.000Z,7.11111111111111
2022-11-18T00:01:43.000Z,7.11111111111111
2022-11-18T00:02:03.000Z,7.11111111111111
2022-11-18T00:02:33.000Z,7.11111111111111
2022-11-18T00:03:04.000Z,7.11111111111111
2022-11-18T00:03:34.000Z,7.11111111111111
2022-11-18T00:03:53.000Z,7.11111111111111
2022-11-18T00:04:23.000Z,7.11111111111111
2022-11-18T00:04:43.000Z,7.11111111111111
2022-11-18T00:05:14.000Z,7.11111111111111
2022-11-18T00:05:43.000Z,7.11111111111111
2022-11-18T00:06:03.000Z,7.11111111111111
2022-11-18T00:06:33.000Z,7.11111111111111
2022-11-18T00:06:54.000Z,7.11111111111111
2022-11-18T00:07:23.000Z,7.222222222222222
2022-11-18T00:07:53.000Z,7.222222222222222
2022-11-18T00:08:23.000Z,7.222222222222222
2022-11-18T00:08:43.000Z,7.222222222222222
2022-11-18T00:09:13.000Z,7.222222222222222
2022-11-18T00:09:43.000Z,7.222222222222222
2022-11-18T00:10:01.000Z,7.222222222222222
2022-11-18T00:10:33.000Z,7.222222222222222
2022-11-18T00:10:55.000Z,7.222222222222222
2022-11-18T00:11:23.000Z,7.222222222222222
2022-11-18T00:11:53.000Z,7.11111111111111
2022-11-18T00:12:23.000Z,7.11111111111111
2022-11-18T00:12:58.000Z,7.11111111111111
2022-11-18T00:13:28.000Z,7.11111111111111
2022-11-18T00:13:55.000Z,7.11111111111111
2022-11-18T00:14:18.000Z,7.11111111111111
2022-11-18T00:14:48.000Z,7.11111111111111
2022-11-18T00:15:23.000Z,7.000000000000001
2022-11-18T00:15:53.000Z,7.000000000000001
2022-11-18T00:16:32.000Z,7.000000000000001
2022-11-18T00:16:59.000Z,7.000000000000001
2022-11-18T00:17:28.000Z,7.000000000000001
2022-11-18T00:17:53.000Z,7.11111111111111
2022-11-18T00:18:18.000Z,7.000000000000001
2022-11-18T00:18:48.000Z,7.000000000000001
2022-11-18T00:19:23.000Z,7.000000000000001
2022-11-18T00:19:53.000Z,6.888888888888888
2022-11-18T00:20:23.000Z,6.888888888888888
2022-11-18T00:20:58.000Z,7.000000000000001
2022-11-18T00:21:28.000Z,6.888888888888888
2022-11-18T00:22:01.000Z,6.888888888888888
2022-11-18T00:22:33.000Z,6.888888888888888
2022-11-18T00:22:54.000Z,6.888888888888888
2022-11-18T00:23:23.000Z,6.888888888888888
2022-11-18T00:24:02.000Z,6.888888888888888
2022-11-18T00:24:23.000Z,6.888888888888888
2022-11-18T00:24:58.000Z,6.888888888888888
2022-11-18T00:25:28.000Z,6.888888888888888
2022-11-18T00:25:53.000Z,6.888888888888888
2022-11-18T00:26:18.000Z,6.888888888888888
2022-11-18T00:26:48.000Z,6.888888888888888
2022-11-18T00:27:23.000Z,7.000000000000001
2022-11-18T00:27:53.000Z,7.000000000000001
2022-11-18T00:28:23.000Z,7.000000000000001
2022-11-18T00:28:58.000Z,7.11111111111111
2022-11-18T00:29:28.000Z,7.000000000000001
2022-11-18T00:30:01.000Z,7.222222222222222
2022-11-18T00:30:33.000Z,7.222222222222222
2022-11-18T00:31:04.000Z,7.11111111111111
2022-11-18T00:31:34.000Z,7.11111111111111
2022-11-18T00:31:53.000Z,7.11111111111111
2022-11-18T00:32:23.000Z,7.11111111111111
2022-11-18T00:32:58.000Z,7.11111111111111
2022-11-18T00:33:28.000Z,7.11111111111111
2022-11-18T00:33:53.000Z,7.11111111111111
2022-11-18T00:34:18.000Z,7.11111111111111
2022-11-18T00:34:48.000Z,7.11111111111111
2022-11-18T00:35:23.000Z,7.11111111111111
2022-11-18T00:35:53.000Z,7.11111111111111
2022-11-18T00:36:23.000Z,7.11111111111111
2022-11-18T00:36:58.000Z,7.11111111111111
2022-11-18T00:37:28.000Z,7.11111111111111
2022-11-18T00:37:53.000Z,7.11111111111111
2022-11-18T00:38:19.000Z,7.11111111111111
2022-11-18T00:38:46.000Z,7.11111111111111
2022-11-18T00:39:03.000Z,7.11111111111111
2022-11-18T00:39:38.000Z,7.11111111111111
2022-11-18T00:40:06.000Z,7.222222222222222
2022-11-18T00:40:23.000Z,7.222222222222222
2022-11-18T00:40:58.000Z,7.222222222222222
2022-11-18T00:41:26.000Z,7.222222222222222
2022-11-18T00:41:43.000Z,7.222222222222222
2022-11-18T00:42:01.000Z,7.222222222222222
2022-11-18T00:42:33.000Z,7.222222222222222
2022-11-18T00:42:54.000Z,7.222222222222222
2022-11-18T00:43:23.000Z,7.222222222222222
2022-11-18T00:43:53.000Z,7.222222222222222
2022-11-18T00:44:23.000Z,7.222222222222222
2022-11-18T00:44:43.000Z,7.222222222222222
2022-11-18T00:45:22.000Z,7.222222222222222
2022-11-18T00:45:43.000Z,7.222222222222222
2022-11-18T00:46:18.000Z,7.222222222222222
2022-11-18T00:46:48.000Z,7.222222222222222
2022-11-18T00:47:23.000Z,7.222222222222222
2022-11-18T00:47:53.000Z,7.11111111111111
2022-11-18T00:48:23.000Z,7.11111111111111
2022-11-18T00:48:58.000Z,7.11111111111111
2022-11-18T00:49:28.000Z,7.11111111111111
2022-11-18T00:49:53.000Z,7.11111111111111
2022-11-18T00:50:18.000Z,7.11111111111111
2022-11-18T00:50:48.000Z,7.11111111111111
2022-11-18T00:51:23.000Z,7.11111111111111
2022-11-18T00:52:02.000Z,7.11111111111111
2022-11-18T00:52:25.000Z,7.222222222222222
2022-11-18T00:52:53.000Z,7.222222222222222
2022-11-18T00:53:22.000Z,7.277777777777778
2022-11-18T00:53:52.000Z,7.277777777777778
2022-11-18T00:54:19.000Z,7.222222222222222
2022-11-18T00:54:46.000Z,7.222222222222222
2022-11-18T00:55:03.000Z,7.222222222222222
2022-11-18T00:55:38.000Z,7.222222222222222
2022-11-18T00:56:06.000Z,7.222222222222222
2022-11-18T00:56:23.000Z,7.222222222222222
2022-11-18T00:56:43.000Z,7.222222222222222
2022-11-18T00:57:13.000Z,7.222222222222222
2022-11-18T00:57:43.000Z,7.222222222222222
2022-11-18T00:58:01.000Z,7.222222222222222
2022-11-18T00:58:33.000Z,7.222222222222222
2022-11-18T00:58:55.000Z,7.222222222222222
2022-11-18T00:59:23.000Z,7.222222222222222
2022-11-18T00:59:53.000Z,7.222222222222222
2022-11-18T01:00:23.000Z,7.222222222222222
2022-11-18T01:00:43.000Z,7.222222222222222
2022-11-18T01:01:13.000Z,7.277777777777778
2022-11-18T01:01:52.000Z,7.277777777777778
2022-11-18T01:02:19.000Z,7.277777777777778
2022-11-18T01:02:48.000Z,7.277777777777778
2022-11-18T01:03:23.000Z,7.277777777777778
2022-11-18T01:03:53.000Z,7.277777777777778
2022-11-18T01:04:23.000Z,7.3888888888888875
2022-11-18T01:04:43.000Z,7.3888888888888875
2022-11-18T01:05:13.000Z,7.3888888888888875
2022-11-18T01:05:43.000Z,7.277777777777778
2022-11-18T01:06:03.000Z,7.277777777777778
2022-11-18T01:06:33.000Z,7.277777777777778
2022-11-18T01:06:54.000Z,7.277777777777778
2022-11-18T01:07:23.000Z,7.277777777777778
2022-11-18T01:07:53.000Z,7.277777777777778
2022-11-18T01:08:23.000Z,7.277777777777778
2022-11-18T01:08:42.000Z,7.277777777777778
2022-11-18T01:09:07.000Z,7.277777777777778
2022-11-18T01:09:28.000Z,7.3888888888888875
2022-11-18T01:09:53.000Z,7.3888888888888875
2022-11-18T01:10:18.000Z,7.3888888888888875
2022-11-18T01:10:48.000Z,7.3888888888888875
2022-11-18T01:11:23.000Z,7.3888888888888875
2022-11-18T01:11:53.000Z,7.3888888888888875
2022-11-18T01:12:23.000Z,7.3888888888888875
2022-11-18T01:12:58.000Z,7.3888888888888875
2022-11-18T01:13:28.000Z,7.3888888888888875
2022-11-18T01:13:53.000Z,7.3888888888888875
2022-11-18T01:14:18.000Z,7.3888888888888875
2022-11-18T01:14:48.000Z,7.3888888888888875
2022-11-18T01:15:23.000Z,7.3888888888888875
2022-11-18T01:15:54.000Z,7.3888888888888875
2022-11-18T01:16:28.000Z,7.3888888888888875
2022-11-18T01:17:07.000Z,7.3888888888888875
2022-11-18T01:17:30.000Z,7.3888888888888875
2022-11-18T01:17:57.000Z,7.3888888888888875
2022-11-18T01:18:20.000Z,7.3888888888888875
2022-11-18T01:18:47.000Z,7.3888888888888875
2022-11-18T01:19:23.000Z,7.3888888888888875
2022-11-18T01:20:02.000Z,7.3888888888888875
2022-11-18T01:20:25.000Z,7.3888888888888875
2022-11-18T01:20:53.000Z,7.3888888888888875
2022-11-18T01:21:22.000Z,7.3888888888888875
2022-11-18T01:21:52.000Z,7.3888888888888875
2022-11-18T01:22:19.000Z,7.3888888888888875
2022-11-18T01:22:46.000Z,7.3888888888888875
2022-11-18T01:23:03.000Z,7.3888888888888875
2022-11-18T01:23:38.000Z,7.3888888888888875
2022-11-18T01:24:08.000Z,7.3888888888888875
2022-11-18T01:24:43.000Z,7.3888888888888875
2022-11-18T01:25:13.000Z,7.3888888888888875
2022-11-18T01:25:43.000Z,7.3888888888888875
2022-11-18T01:26:18.000Z,7.277777777777778
2022-11-18T01:26:48.000Z,7.277777777777778
2022-11-18T01:27:23.000Z,7.277777777777778
2022-11-18T01:27:53.000Z,7.277777777777778
2022-11-18T01:28:23.000Z,7.277777777777778
2022-11-18T01:28:58.000Z,7.277777777777778
2022-11-18T01:29:29.000Z,7.277777777777778
2022-11-18T01:29:53.000Z,7.277777777777778
2022-11-18T01:30:19.000Z,7.277777777777778
2022-11-18T01:30:46.000Z,7.277777777777778
2022-11-18T01:31:12.000Z,7.277777777777778
2022-11-18T01:31:39.000Z,7.277777777777778
2022-11-18T01:32:02.000Z,7.277777777777778
2022-11-18T01:32:23.000Z,7.277777777777778
2022-11-18T01:32:58.000Z,7.277777777777778
2022-11-18T01:33:28.000Z,7.277777777777778
2022-11-18T01:33:53.000Z,7.277777777777778
2022-11-18T01:34:18.000Z,7.277777777777778
2022-11-18T01:34:49.000Z,7.277777777777778
2022-11-18T01:35:23.000Z,7.3888888888888875
2022-11-18T01:35:53.000Z,7.3888888888888875
2022-11-18T01:36:23.000Z,7.3888888888888875
2022-11-18T01:36:58.000Z,7.3888888888888875
2022-11-18T01:37:28.000Z,7.3888888888888875
2022-11-18T01:37:53.000Z,7.3888888888888875
2022-11-18T01:38:18.000Z,7.277777777777778
2022-11-18T01:38:57.000Z,7.277777777777778
2022-11-18T01:39:22.000Z,7.277777777777778
2022-11-18T01:39:50.000Z,7.277777777777778
2022-11-18T01:40:06.000Z,7.277777777777778
2022-11-18T01:40:23.000Z,7.277777777777778
2022-11-18T01:40:58.000Z,7.277777777777778
2022-11-18T01:41:28.000Z,7.277777777777778
2022-11-18T01:42:03.000Z,7.222222222222222
2022-11-18T01:42:33.000Z,7.222222222222222
2022-11-18T01:42:55.000Z,7.222222222222222
2022-11-18T01:43:23.000Z,7.222222222222222
2022-11-18T01:43:53.000Z,7.222222222222222
2022-11-18T01:44:23.000Z,7.222222222222222
2022-11-18T01:44:58.000Z,7.222222222222222
2022-11-18T01:45:28.000Z,7.277777777777778
2022-11-18T01:45:53.000Z,7.277777777777778
2022-11-18T01:46:27.000Z,7.277777777777778
2022-11-18T01:46:57.000Z,7.277777777777778
2022-11-18T01:47:23.000Z,7.277777777777778
2022-11-18T01:47:53.000Z,7.277777777777778
2022-11-18T01:48:23.000Z,7.277777777777778
2022-11-18T01:48:58.000Z,7.277777777777778
2022-11-18T01:49:28.000Z,7.277777777777778
2022-11-18T01:50:01.000Z,7.277777777777778
2022-11-18T01:50:33.000Z,7.277777777777778
2022-11-18T01:50:54.000Z,7.277777777777778
2022-11-18T01:51:23.000Z,7.222222222222222
2022-11-18T01:51:53.000Z,7.222222222222222
2022-11-18T01:52:23.000Z,7.222222222222222
2022-11-18T01:52:58.000Z,7.222222222222222
2022-11-18T01:53:28.000Z,7.222222222222222
2022-11-18T01:53:53.000Z,7.277777777777778
2022-11-18T01:54:18.000Z,7.277777777777778
2022-11-18T01:54:48.000Z,7.277777777777778
2022-11-18T01:55:23.000Z,7.277777777777778
2022-11-18T01:55:53.000Z,7.277777777777778
2022-11-18T01:56:23.000Z,7.277777777777778
2022-11-18T01:56:58.000Z,7.277777777777778
2022-11-18T01:57:28.000Z,7.277777777777778
2022-11-18T01:57:53.000Z,7.277777777777778
2022-11-18T01:58:18.000Z,7.277777777777778
2022-11-18T01:58:48.000Z,7.277777777777778
2022-11-18T01:59:23.000Z,7.277777777777778
2022-11-18T01:59:53.000Z,7.277777777777778
2022-11-18T02:00:23.000Z,7.277777777777778
2022-11-18T02:00:58.000Z,7.277777777777778
2022-11-18T02:01:28.000Z,7.277777777777778
2022-11-18T02:02:01.000Z,7.277777777777778
2022-11-18T02:02:33.000Z,7.277777777777778
2022-11-18T02:02:54.000Z,7.277777777777778
2022-11-18T02:03:23.000Z,7.277777777777778
2022-11-18T02:03:53.000Z,7.277777777777778
2022-11-18T02:04:23.000Z,7.277777777777778
2022-11-18T02:04:58.000Z,7.277777777777778
2022-11-18T02:05:28.000Z,7.277777777777778
2022-11-18T02:06:01.000Z,7.277777777777778
2022-11-18T02:06:33.000Z,7.277777777777778
2022-11-18T02:06:57.000Z,7.277777777777778
2022-11-18T02:07:22.000Z,7.277777777777778
2022-11-18T02:07:50.000Z,7.277777777777778
2022-11-18T02:08:23.000Z,7.277777777777778
2022-11-18T02:08:58.000Z,7.277777777777778
2022-11-18T02:09:28.000Z,7.277777777777778
2022-11-18T02:10:01.000Z,7.222222222222222
2022-11-18T02:10:33.000Z,7.222222222222222
2022-11-18T02:10:54.000Z,7.222222222222222
2022-11-18T02:11:23.000Z,7.222222222222222
2022-11-18T02:11:53.000Z,7.277777777777778
2022-11-18T02:12:23.000Z,7.277777777777778
2022-11-18T02:12:58.000Z,7.222222222222222
2022-11-18T02:13:28.000Z,7.277777777777778
2022-11-18T02:13:53.000Z,7.277777777777778
2022-11-18T02:14:18.000Z,7.277777777777778
2022-11-18T02:14:57.000Z,7.277777777777778
2022-11-18T02:15:23.000Z,7.277777777777778
2022-11-18T02:15:53.000Z,7.277777777777778
2022-11-18T02:16:23.000Z,7.277777777777778
2022-11-18T02:16:58.000Z,7.277777777777778
2022-11-18T02:17:28.000Z,7.277777777777778
2022-11-18T02:18:01.000Z,7.277777777777778
2022-11-18T02:18:33.000Z,7.3888888888888875
2022-11-18T02:18:54.000Z,7.3888888888888875
2022-11-18T02:19:23.000Z,7.3888888888888875
2022-11-18T02:19:53.000Z,7.3888888888888875
2022-11-18T02:20:23.000Z,7.3888888888888875
2022-11-18T02:20:58.000Z,7.3888888888888875
2022-11-18T02:21:28.000Z,7.3888888888888875
2022-11-18T02:21:53.000Z,7.3888888888888875
2022-11-18T02:22:14.000Z,7.5
2022-11-18T02:22:42.000Z,7.5
2022-11-18T02:23:12.000Z,7.5
2022-11-18T02:23:39.000Z,7.5
2022-11-18T02:24:02.000Z,7.5
2022-11-18T02:24:25.000Z,7.5
2022-11-18T02:24:53.000Z,7.5
2022-11-18T02:25:22.000Z,7.5
2022-11-18T02:25:52.000Z,7.6111111111111125
2022-11-18T02:26:19.000Z,7.6111111111111125
2022-11-18T02:26:46.000Z,7.6111111111111125
2022-11-18T02:27:12.000Z,7.6111111111111125
2022-11-18T02:27:39.000Z,7.6111111111111125
2022-11-18T02:28:02.000Z,7.6111111111111125
2022-11-18T02:28:25.000Z,7.6111111111111125
2022-11-18T02:28:58.000Z,7.6111111111111125
2022-11-18T02:29:28.000Z,7.5
2022-11-18T02:29:53.000Z,7.5
2022-11-18T02:30:18.000Z,7.5
2022-11-18T02:30:48.000Z,7.5
2022-11-18T02:31:23.000Z,7.6111111111111125
2022-11-18T02:31:53.000Z,7.6111111111111125
2022-11-18T02:32:23.000Z,7.6111111111111125
2022-11-18T02:32:43.000Z,7.6111111111111125
2022-11-18T02:33:13.000Z,7.6111111111111125
2022-11-18T02:33:43.000Z,7.6111111111111125
2022-11-18T02:34:18.000Z,7.6111111111111125
2022-11-18T02:34:48.000Z,7.6111111111111125
2022-11-18T02:35:23.000Z,7.6111111111111125
2022-11-18T02:36:02.000Z,7.6111111111111125
2022-11-18T02:36:25.000Z,7.6111111111111125
2022-11-18T02:36:53.000Z,7.6111111111111125
2022-11-18T02:37:22.000Z,7.6111111111111125
2022-11-18T02:37:52.000Z,7.6111111111111125
2022-11-18T02:38:18.000Z,7.777777777777778
2022-11-18T02:38:48.000Z,7.777777777777778
2022-11-18T02:39:23.000Z,7.777777777777778
2022-11-18T02:39:53.000Z,7.777777777777778
2022-11-18T02:40:23.000Z,7.777777777777778
2022-11-18T02:40:43.000Z,7.777777777777778
2022-11-18T02:41:12.000Z,7.777777777777778
2022-11-18T02:41:43.000Z,7.777777777777778
2022-11-18T02:42:01.000Z,7.777777777777778
2022-11-18T02:42:33.000Z,7.777777777777778
2022-11-18T02:42:54.000Z,7.777777777777778
2022-11-18T02:43:23.000Z,7.777777777777778
2022-11-18T02:43:53.000Z,7.722222222222222
2022-11-18T02:44:32.000Z,7.722222222222222
2022-11-18T02:44:59.000Z,7.722222222222222
2022-11-18T02:45:30.000Z,7.722222222222222
2022-11-18T02:45:53.000Z,7.722222222222222
2022-11-18T02:46:18.000Z,7.722222222222222
2022-11-18T02:46:48.000Z,7.722222222222222
2022-11-18T02:47:23.000Z,7.722222222222222
2022-11-18T02:47:53.000Z,7.722222222222222
2022-11-18T02:48:23.000Z,7.722222222222222
2022-11-18T02:48:58.000Z,7.722222222222222
2022-11-18T02:49:28.000Z,7.722222222222222
2022-11-18T02:49:53.000Z,7.722222222222222
2022-11-18T02:50:18.000Z,7.722222222222222
2022-11-18T02:50:48.000Z,8.0
2022-11-18T02:51:23.000Z,7.88888888888889
2022-11-18T02:51:53.000Z,7.88888888888889
2022-11-18T02:52:24.000Z,7.88888888888889
2022-11-18T02:52:53.000Z,7.88888888888889
2022-11-18T02:53:13.000Z,7.88888888888889
2022-11-18T02:53:43.000Z,7.88888888888889
2022-11-18T02:54:18.000Z,7.88888888888889
2022-11-18T02:54:48.000Z,7.88888888888889
2022-11-18T02:55:23.000Z,7.88888888888889
2022-11-18T02:55:53.000Z,7.88888888888889
2022-11-18T02:56:23.000Z,7.88888888888889
2022-11-18T02:56:58.000Z,7.88888888888889
2022-11-18T02:57:28.000Z,7.88888888888889
2022-11-18T02:57:53.000Z,7.88888888888889
2022-11-18T02:58:18.000Z,7.88888888888889
2022-11-18T02:58:48.000Z,7.88888888888889
2022-11-18T02:59:23.000Z,7.88888888888889
2022-11-18T02:59:53.000Z,7.88888888888889
2022-11-18T03:00:23.000Z,7.88888888888889
2022-11-18T03:00:58.000Z,7.88888888888889
2022-11-18T03:01:28.000Z,7.777777777777778
2022-11-18T03:02:01.000Z,7.777777777777778
2022-11-18T03:02:33.000Z,7.777777777777778
2022-11-18T03:02:54.000Z,7.777777777777778
2022-11-18T03:03:23.000Z,7.777777777777778
2022-11-18T03:03:53.000Z,7.88888888888889
2022-11-18T03:04:23.000Z,7.88888888888889
2022-11-18T03:04:58.000Z,7.88888888888889
2022-11-18T03:05:28.000Z,7.88888888888889
2022-11-18T03:06:04.000Z,7.88888888888889
2022-11-18T03:06:30.000Z,7.88888888888889
2022-11-18T03:06:57.000Z,7.88888888888889
2022-11-18T03:07:22.000Z,7.88888888888889
2022-11-18T03:07:50.000Z,7.88888888888889
2022-11-18T03:08:14.000Z,7.88888888888889
2022-11-18T03:08:43.000Z,7.88888888888889
2022-11-18T03:09:12.000Z,7.88888888888889
2022-11-18T03:09:43.000Z,7.88888888888889
2022-11-18T03:10:18.000Z,7.88888888888889
2022-11-18T03:10:48.000Z,7.88888888888889
2022-11-18T03:11:23.000Z,7.88888888888889
2022-11-18T03:11:53.000Z,7.88888888888889
2022-11-18T03:12:23.000Z,7.88888888888889
2022-11-18T03:12:58.000Z,7.88888888888889
2022-11-18T03:13:28.000Z,7.88888888888889
2022-11-18T03:13:54.000Z,7.88888888888889
2022-11-18T03:14:18.000Z,7.88888888888889
2022-11-18T03:14:57.000Z,7.777777777777778
2022-11-18T03:15:22.000Z,7.777777777777778
2022-11-18T03:15:50.000Z,7.777777777777778
2022-11-18T03:16:14.000Z,7.777777777777778
2022-11-18T03:16:43.000Z,7.777777777777778
2022-11-18T03:17:13.000Z,7.777777777777778
2022-11-18T03:17:43.000Z,7.777777777777778
2022-11-18T03:18:18.000Z,7.777777777777778
2022-11-18T03:18:48.000Z,7.777777777777778
2022-11-18T03:19:23.000Z,7.777777777777778
2022-11-18T03:19:53.000Z,7.777777777777778
2022-11-18T03:20:23.000Z,7.777777777777778
2022-11-18T03:20:58.000Z,7.777777777777778
2022-11-18T03:21:28.000Z,7.777777777777778
2022-11-18T03:21:54.000Z,7.777777777777778
2022-11-18T03:22:18.000Z,7.777777777777778
2022-11-18T03:22:57.000Z,7.777777777777778
2022-11-18T03:23:22.000Z,7.722222222222222
2022-11-18T03:23:50.000Z,7.777777777777778
2022-11-18T03:24:23.000Z,7.722222222222222
2022-11-18T03:25:07.000Z,7.777777777777778
2022-11-18T03:25:30.000Z,7.777777777777778
2022-11-18T03:25:57.000Z,7.777777777777778
2022-11-18T03:26:20.000Z,7.777777777777778
2022-11-18T03:26:47.000Z,7.777777777777778
2022-11-18T03:27:23.000Z,7.777777777777778
2022-11-18T03:27:53.000Z,7.777777777777778
2022-11-18T03:28:23.000Z,7.777777777777778
2022-11-18T03:28:58.000Z,7.777777777777778
2022-11-18T03:29:28.000Z,7.777777777777778
2022-11-18T03:29:53.000Z,7.777777777777778
2022-11-18T03:30:18.000Z,7.777777777777778
2022-11-18T03:30:48.000Z,7.777777777777778
2022-11-18T03:31:23.000Z,7.777777777777778
2022-11-18T03:31:53.000Z,7.722222222222222
2022-11-18T03:32:23.000Z,7.722222222222222
2022-11-18T03:32:58.000Z,7.722222222222222
2022-11-18T03:33:28.000Z,7.722222222222222
2022-11-18T03:33:53.000Z,7.722222222222222
2022-11-18T03:34:18.000Z,7.722222222222222
2022-11-18T03:34:48.000Z,7.722222222222222
2022-11-18T03:35:23.000Z,7.722222222222222
2022-11-18T03:35:53.000Z,7.722222222222222
2022-11-18T03:36:23.000Z,7.722222222222222
2022-11-18T03:36:58.000Z,7.6111111111111125
2022-11-18T03:37:28.000Z,7.6111111111111125
2022-11-18T03:37:53.000Z,7.6111111111111125
2022-11-18T03:38:18.000Z,7.6111111111111125
2022-11-18T03:38:48.000Z,7.6111111111111125
2022-11-18T03:39:23.000Z,7.6111111111111125
2022-11-18T03:39:53.000Z,7.6111111111111125
2022-11-18T03:40:32.000Z,7.5
2022-11-18T03:40:59.000Z,7.5
2022-11-18T03:41:30.000Z,7.6111111111111125
2022-11-18T03:41:57.000Z,7.6111111111111125
2022-11-18T03:42:20.000Z,7.6111111111111125
2022-11-18T03:42:48.000Z,7.6111111111111125
2022-11-18T03:43:23.000Z,7.6111111111111125
2022-11-18T03:43:53.000Z,7.6111111111111125
2022-11-18T03:44:23.000Z,7.6111111111111125
2022-11-18T03:44:58.000Z,7.6111111111111125
2022-11-18T03:45:28.000Z,7.6111111111111125
2022-11-18T03:45:53.000Z,7.6111111111111125
2022-11-18T03:46:18.000Z,7.6111111111111125
2022-11-18T03:46:48.000Z,7.6111111111111125
2022-11-18T03:47:23.000Z,7.722222222222222
2022-11-18T03:47:53.000Z,7.722222222222222
2022-11-18T03:48:23.000Z,7.722222222222222
2022-11-18T03:48:52.000Z,7.777777777777778
2022-11-18T03:49:13.000Z,7.777777777777778
2022-11-18T03:49:43.000Z,7.777777777777778
2022-11-18T03:50:03.000Z,7.777777777777778
2022-11-18T03:50:33.000Z,7.777777777777778
2022-11-18T03:50:54.000Z,7.777777777777778
2022-11-18T03:51:23.000Z,7.777777777777778
2022-11-18T03:51:53.000Z,7.777777777777778
2022-11-18T03:52:23.000Z,7.777777777777778
2022-11-18T03:52:58.000Z,7.777777777777778
2022-11-18T03:53:28.000Z,7.777777777777778
2022-11-18T03:53:53.000Z,7.777777777777778
2022-11-18T03:54:18.000Z,7.777777777777778
2022-11-18T03:54:48.000Z,7.777777777777778
2022-11-18T03:55:23.000Z,7.777777777777778
2022-11-18T03:55:50.000Z,7.777777777777778
2022-11-18T03:56:23.000Z,7.777777777777778
2022-11-18T03:56:58.000Z,7.777777777777778
2022-11-18T03:57:28.000Z,7.777777777777778
2022-11-18T03:57:53.000Z,7.777777777777778
2022-11-18T03:58:18.000Z,7.777777777777778
2022-11-18T03:58:48.000Z,7.777777777777778
2022-11-18T03:59:23.000Z,7.777777777777778
2022-11-18T03:59:53.000Z,7.777777777777778
2022-11-18T04:00:23.000Z,7.777777777777778
2022-11-18T04:00:58.000Z,7.777777777777778
2022-11-18T04:01:28.000Z,7.777777777777778
2022-11-18T04:02:01.000Z,7.777777777777778
2022-11-18T04:02:33.000Z,7.777777777777778
2022-11-18T04:02:55.000Z,7.722222222222222
2022-11-18T04:03:22.000Z,7.722222222222222
2022-11-18T04:03:53.000Z,7.722222222222222
2022-11-18T04:04:23.000Z,7.722222222222222
2022-11-18T04:04:58.000Z,7.722222222222222
2022-11-18T04:05:28.000Z,7.722222222222222
2022-11-18T04:06:01.000Z,7.722222222222222
2022-11-18T04:06:33.000Z,7.722222222222222
2022-11-18T04:06:54.000Z,7.722222222222222
2022-11-18T04:07:23.000Z,7.722222222222222
2022-11-18T04:07:53.000Z,7.722222222222222
2022-11-18T04:08:23.000Z,7.722222222222222
2022-11-18T04:08:58.000Z,7.722222222222222
2022-11-18T04:09:28.000Z,7.722222222222222
2022-11-18T04:10:03.000Z,7.722222222222222
2022-11-18T04:10:30.000Z,7.722222222222222
2022-11-18T04:10:57.000Z,7.722222222222222
2022-11-18T04:11:22.000Z,7.722222222222222
2022-11-18T04:11:50.000Z,7.722222222222222
2022-11-18T04:12:14.000Z,7.722222222222222
2022-11-18T04:12:39.000Z,7.722222222222222
2022-11-18T04:13:07.000Z,7.722222222222222
2022-11-18T04:13:31.000Z,7.722222222222222
2022-11-18T04:13:57.000Z,7.722222222222222
2022-11-18T04:14:18.000Z,7.722222222222222
2022-11-18T04:14:48.000Z,7.6111111111111125
2022-11-18T04:15:23.000Z,7.6111111111111125
2022-11-18T04:15:53.000Z,7.6111111111111125
2022-11-18T04:16:23.000Z,7.6111111111111125
2022-11-18T04:16:58.000Z,7.6111111111111125
2022-11-18T04:17:28.000Z,7.6111111111111125
2022-11-18T04:17:54.000Z,7.6111111111111125
2022-11-18T04:18:18.000Z,7.6111111111111125
2022-11-18T04:18:48.000Z,7.6111111111111125
2022-11-18T04:19:23.000Z,7.6111111111111125
2022-11-18T04:19:53.000Z,7.6111111111111125
2022-11-18T04:20:32.000Z,7.6111111111111125
2022-11-18T04:20:59.000Z,7.6111111111111125
2022-11-18T04:21:28.000Z,7.6111111111111125
2022-11-18T04:21:53.000Z,7.5
2022-11-18T04:22:18.000Z,7.5
2022-11-18T04:22:48.000Z,7.6111111111111125
2022-11-18T04:23:23.000Z,7.6111111111111125
2022-11-18T04:23:53.000Z,7.6111111111111125
2022-11-18T04:24:23.000Z,7.6111111111111125
2022-11-18T04:24:58.000Z,7.6111111111111125
2022-11-18T04:25:28.000Z,7.6111111111111125
2022-11-18T04:26:01.000Z,7.6111111111111125
2022-11-18T04:26:33.000Z,7.722222222222222
2022-11-18T04:26:54.000Z,7.722222222222222
2022-11-18T04:27:23.000Z,7.722222222222222
2022-11-18T04:28:03.000Z,7.722222222222222
2022-11-18T04:28:26.000Z,7.722222222222222
2022-11-18T04:28:53.000Z,7.6111111111111125
2022-11-18T04:29:23.000Z,7.6111111111111125
2022-11-18T04:29:53.000Z,7.6111111111111125
2022-11-18T04:30:19.000Z,7.6111111111111125
2022-11-18T04:30:46.000Z,7.6111111111111125
2022-11-18T04:31:13.000Z,7.6111111111111125
2022-11-18T04:31:39.000Z,7.6111111111111125
2022-11-18T04:32:03.000Z,7.6111111111111125
2022-11-18T04:32:25.000Z,7.6111111111111125